Terminal Aerodrome Forecast
Issued by NWS

Home | Current Version | Previous Version | Text Only | Print | Product List | Glossary Off
Versions: 1 2 3 4 5 6 7 8 9 10 11 12 13 14 15 16 17 18

000
FTUS43 KICT 240522
TAFRSL
TAF
KRSL 240522Z 2406/2506 14012KT P6SM VCTS OVC016CB
      TEMPO 2406/2408 VRB20G35KT 3SM +TSRA SCT016 OVC030CB
     FM241500 16017G24KT P6SM BKN035=

USA.gov is the U.S. government's official web portal to all federal, state and local government web resources and services.